Agua Doce, Brazil
Current Conditions -  °F | °C
As of 10:00 AM on Wednesday 26 Nov 2014 (Local Time) from SBCH Reporting Station
Broken Clouds Broken Clouds  
Wind Chill: 72°   Ceiling: 1000
Heat Index: 72°   Visibility: 6mi
Dew Point: 66°   Wind: 5mph
Humidity: 83%   Direction: 40°NE
Pressure: 29.85"   Gusts: NA
Location:  27°S, 51.56°W
Report Text: SBCH 261200Z 04004KT 9999 BKN010 SCT100 22/19 Q1011
Loading
Personal Weather Stations






























Interactive Weather Map New forecast layout! Learn more

10-Day Weather Forecast

Advertisements
Track Severe Weather on mobile